sensor_id;sensor_type;location;lat;lon;timestamp;pressure;altitude;pressure_sealevel;temperature;humidity
49627;BME280;35527;54.616;39.786;2023-03-04T00:02:29;98368.34;;;2.18;95.34
49627;BME280;35527;54.616;39.786;2023-03-04T00:05:32;98344.75;;;2.10;95.52
49627;BME280;35527;54.616;39.786;2023-03-04T00:08:35;98358.13;;;2.18;96.01
49627;BME280;35527;54.616;39.786;2023-03-04T00:11:43;98348.75;;;2.19;96.57
49627;BME280;35527;54.616;39.786;2023-03-04T00:14:46;98339.56;;;2.12;95.94
49627;BME280;35527;54.616;39.786;2023-03-04T00:17:52;98333.16;;;2.28;95.76
49627;BME280;35527;54.616;39.786;2023-03-04T00:21:21;98323.19;;;2.20;95.78
49627;BME280;35527;54.616;39.786;2023-03-04T00:24:26;98319.00;;;2.18;94.98
49627;BME280;35527;54.616;39.786;2023-03-04T00:27:29;98327.34;;;2.23;95.23
49627;BME280;35527;54.616;39.786;2023-03-04T00:30:33;98328.97;;;2.25;95.13
49627;BME280;35527;54.616;39.786;2023-03-04T00:33:36;98330.47;;;2.33;94.68
49627;BME280;35527;54.616;39.786;2023-03-04T00:36:42;98318.31;;;2.41;94.97
49627;BME280;35527;54.616;39.786;2023-03-04T00:39:45;98333.81;;;2.35;94.67
49627;BME280;35527;54.616;39.786;2023-03-04T00:42:53;98319.38;;;2.34;94.71
49627;BME280;35527;54.616;39.786;2023-03-04T00:45:55;98314.34;;;2.32;94.37
49627;BME280;35527;54.616;39.786;2023-03-04T00:49:02;98295.78;;;2.25;94.04
49627;BME280;35527;54.616;39.786;2023-03-04T00:52:06;98309.81;;;2.12;95.15
49627;BME280;35527;54.616;39.786;2023-03-04T00:55:08;98303.13;;;2.08;95.16
49627;BME280;35527;54.616;39.786;2023-03-04T00:58:15;98294.91;;;1.98;95.63
49627;BME280;35527;54.616;39.786;2023-03-04T01:01:25;98291.72;;;1.90;96.61
49627;BME280;35527;54.616;39.786;2023-03-04T01:04:30;98300.50;;;1.80;97.15
49627;BME280;35527;54.616;39.786;2023-03-04T01:07:35;98282.47;;;1.56;97.33
49627;BME280;35527;54.616;39.786;2023-03-04T01:10:39;98289.53;;;1.47;98.24
49627;BME280;35527;54.616;39.786;2023-03-04T01:13:43;98284.91;;;1.30;98.23
49627;BME280;35527;54.616;39.786;2023-03-04T01:16:48;98265.28;;;1.01;99.48
49627;BME280;35527;54.616;39.786;2023-03-04T01:19:51;98261.34;;;0.87;100.00
49627;BME280;35527;54.616;39.786;2023-03-04T01:22:54;98286.50;;;1.00;100.00
49627;BME280;35527;54.616;39.786;2023-03-04T01:26:05;98262.03;;;0.94;100.00
49627;BME280;35527;54.616;39.786;2023-03-04T01:29:07;98247.13;;;0.80;100.00
49627;BME280;35527;54.616;39.786;2023-03-04T01:32:13;98277.94;;;1.04;100.00
49627;BME280;35527;54.616;39.786;2023-03-04T01:35:16;98263.31;;;0.76;100.00
49627;BME280;35527;54.616;39.786;2023-03-04T01:38:28;98264.06;;;0.80;100.00
49627;BME280;35527;54.616;39.786;2023-03-04T01:41:31;98269.47;;;0.67;100.00
49627;BME280;35527;54.616;39.786;2023-03-04T01:44:35;98244.56;;;0.46;100.00
49627;BME280;35527;54.616;39.786;2023-03-04T01:47:39;98267.00;;;0.66;100.00
49627;BME280;35527;54.616;39.786;2023-03-04T01:50:45;98255.09;;;0.65;100.00
49627;BME280;35527;54.616;39.786;2023-03-04T01:53:50;98269.31;;;0.74;100.00
49627;BME280;35527;54.616;39.786;2023-03-04T01:56:56;98269.09;;;0.83;100.00
49627;BME280;35527;54.616;39.786;2023-03-04T02:00:19;98255.09;;;0.99;100.00
49627;BME280;35527;54.616;39.786;2023-03-04T02:03:26;98229.81;;;0.92;100.00
49627;BME280;35527;54.616;39.786;2023-03-04T02:06:30;98233.44;;;0.83;100.00
49627;BME280;35527;54.616;39.786;2023-03-04T02:09:58;98252.22;;;1.11;100.00
49627;BME280;35527;54.616;39.786;2023-03-04T02:13:01;98251.28;;;1.16;100.00
49627;BME280;35527;54.616;39.786;2023-03-04T02:16:07;98219.53;;;0.96;100.00
49627;BME280;35527;54.616;39.786;2023-03-04T02:22:22;98245.53;;;1.09;99.31
49627;BME280;35527;54.616;39.786;2023-03-04T02:26:13;98253.50;;;1.28;99.34
49627;BME280;35527;54.616;39.786;2023-03-04T02:29:23;98235.34;;;1.09;99.73
49627;BME280;35527;54.616;39.786;2023-03-04T02:32:26;98223.88;;;0.93;99.13
49627;BME280;35527;54.616;39.786;2023-03-04T02:35:28;98224.94;;;0.84;99.66
49627;BME280;35527;54.616;39.786;2023-03-04T02:38:31;98239.88;;;0.98;99.35
49627;BME280;35527;54.616;39.786;2023-03-04T02:42:02;98228.84;;;0.97;99.83
49627;BME280;35527;54.616;39.786;2023-03-04T02:48:31;98213.94;;;0.83;98.54
49627;BME280;35527;54.616;39.786;2023-03-04T02:51:35;98225.06;;;0.79;98.46
49627;BME280;35527;54.616;39.786;2023-03-04T02:54:40;98216.81;;;0.70;98.77
49627;BME280;35527;54.616;39.786;2023-03-04T02:57:45;98216.25;;;0.58;98.33
49627;BME280;35527;54.616;39.786;2023-03-04T03:00:48;98197.38;;;0.33;99.19
49627;BME280;35527;54.616;39.786;2023-03-04T03:03:51;98185.03;;;0.16;99.25
49627;BME280;35527;54.616;39.786;2023-03-04T03:06:57;98200.38;;;0.13;99.77
49627;BME280;35527;54.616;39.786;2023-03-04T03:10:00;98186.38;;;-0.05;100.00
49627;BME280;35527;54.616;39.786;2023-03-04T03:13:05;98194.09;;;-0.10;100.00
49627;BME280;35527;54.616;39.786;2023-03-04T03:16:13;98185.56;;;-0.06;100.00
49627;BME280;35527;54.616;39.786;2023-03-04T03:19:18;98155.50;;;-0.26;100.00
49627;BME280;35527;54.616;39.786;2023-03-04T03:22:25;98183.16;;;-0.13;100.00
49627;BME280;35527;54.616;39.786;2023-03-04T03:25:28;98151.44;;;-0.34;100.00
49627;BME280;35527;54.616;39.786;2023-03-04T03:28:32;98178.97;;;-0.16;100.00
49627;BME280;35527;54.616;39.786;2023-03-04T03:31:36;98178.28;;;-0.22;100.00
49627;BME280;35527;54.616;39.786;2023-03-04T03:34:39;98149.81;;;-0.38;100.00
49627;BME280;35527;54.616;39.786;2023-03-04T03:37:43;98149.72;;;-0.34;100.00
49627;BME280;35527;54.616;39.786;2023-03-04T03:40:46;98159.53;;;-0.17;100.00
49627;BME280;35527;54.616;39.786;2023-03-04T03:43:49;98156.28;;;-0.24;100.00
49627;BME280;35527;54.616;39.786;2023-03-04T03:46:56;98167.97;;;-0.16;100.00
49627;BME280;35527;54.616;39.786;2023-03-04T03:50:04;98153.63;;;-0.19;100.00
49627;BME280;35527;54.616;39.786;2023-03-04T03:53:07;98170.47;;;-0.15;100.00
49627;BME280;35527;54.616;39.786;2023-03-04T03:56:11;98147.00;;;-0.26;100.00
49627;BME280;35527;54.616;39.786;2023-03-04T03:59:20;98136.97;;;-0.31;100.00
49627;BME280;35527;54.616;39.786;2023-03-04T04:02:26;98152.50;;;-0.06;100.00
49627;BME280;35527;54.616;39.786;2023-03-04T04:05:30;98134.69;;;-0.06;100.00
49627;BME280;35527;54.616;39.786;2023-03-04T04:08:34;98128.41;;;0.09;100.00
49627;BME280;35527;54.616;39.786;2023-03-04T04:11:40;98151.72;;;0.27;100.00
49627;BME280;35527;54.616;39.786;2023-03-04T04:15:13;98149.44;;;0.49;100.00
49627;BME280;35527;54.616;39.786;2023-03-04T04:18:18;98117.03;;;0.22;100.00
49627;BME280;35527;54.616;39.786;2023-03-04T04:21:26;98134.34;;;0.42;100.00
49627;BME280;35527;54.616;39.786;2023-03-04T04:24:33;98129.16;;;0.47;100.00
49627;BME280;35527;54.616;39.786;2023-03-04T04:27:39;98129.66;;;0.60;100.00
49627;BME280;35527;54.616;39.786;2023-03-04T04:30:43;98128.25;;;0.50;100.00
49627;BME280;35527;54.616;39.786;2023-03-04T04:33:47;98103.16;;;0.36;100.00
49627;BME280;35527;54.616;39.786;2023-03-04T04:36:51;98118.72;;;0.56;100.00
49627;BME280;35527;54.616;39.786;2023-03-04T04:39:55;98125.13;;;0.71;100.00
49627;BME280;35527;54.616;39.786;2023-03-04T04:42:59;98119.25;;;0.69;100.00
49627;BME280;35527;54.616;39.786;2023-03-04T04:46:04;98121.66;;;0.74;100.00
49627;BME280;35527;54.616;39.786;2023-03-04T04:49:08;98129.56;;;0.96;100.00
49627;BME280;35527;54.616;39.786;2023-03-04T04:52:13;98110.09;;;0.93;100.00
49627;BME280;35527;54.616;39.786;2023-03-04T04:55:15;98118.75;;;0.87;100.00
49627;BME280;35527;54.616;39.786;2023-03-04T04:58:18;98132.84;;;0.99;100.00
49627;BME280;35527;54.616;39.786;2023-03-04T05:01:24;98127.72;;;1.01;100.00
49627;BME280;35527;54.616;39.786;2023-03-04T05:04:28;98120.03;;;1.02;100.00
49627;BME280;35527;54.616;39.786;2023-03-04T05:07:33;98124.84;;;1.11;100.00
49627;BME280;35527;54.616;39.786;2023-03-04T05:10:36;98130.53;;;1.21;100.00
49627;BME280;35527;54.616;39.786;2023-03-04T05:13:39;98125.25;;;1.29;100.00
49627;BME280;35527;54.616;39.786;2023-03-04T05:16:48;98107.69;;;1.18;100.00
49627;BME280;35527;54.616;39.786;2023-03-04T05:19:52;98105.72;;;1.28;99.90
49627;BME280;35527;54.616;39.786;2023-03-04T05:22:54;98119.59;;;1.47;99.02
49627;BME280;35527;54.616;39.786;2023-03-04T05:26:00;98122.75;;;1.55;98.94
49627;BME280;35527;54.616;39.786;2023-03-04T05:29:03;98122.13;;;1.47;98.13
49627;BME280;35527;54.616;39.786;2023-03-04T05:32:32;98108.59;;;1.45;97.53
49627;BME280;35527;54.616;39.786;2023-03-04T05:35:37;98113.09;;;1.65;96.80
49627;BME280;35527;54.616;39.786;2023-03-04T05:38:43;98109.78;;;1.63;96.04
49627;BME280;35527;54.616;39.786;2023-03-04T05:41:46;98102.47;;;1.51;95.86
49627;BME280;35527;54.616;39.786;2023-03-04T05:44:49;98102.97;;;1.64;94.73
49627;BME280;35527;54.616;39.786;2023-03-04T05:47:54;98107.69;;;1.74;94.07
49627;BME280;35527;54.616;39.786;2023-03-04T05:51:00;98080.69;;;1.69;94.01
49627;BME280;35527;54.616;39.786;2023-03-04T05:54:05;98067.03;;;1.43;93.25
49627;BME280;35527;54.616;39.786;2023-03-04T05:57:11;98095.44;;;1.86;93.03
49627;BME280;35527;54.616;39.786;2023-03-04T06:00:14;98099.28;;;1.99;92.66
49627;BME280;35527;54.616;39.786;2023-03-04T06:03:22;98100.78;;;2.06;92.19
49627;BME280;35527;54.616;39.786;2023-03-04T06:06:28;98091.22;;;2.11;91.39
49627;BME280;35527;54.616;39.786;2023-03-04T06:09:34;98105.31;;;2.23;90.38
49627;BME280;35527;54.616;39.786;2023-03-04T06:12:37;98106.19;;;2.22;90.25
49627;BME280;35527;54.616;39.786;2023-03-04T06:15:52;98101.22;;;2.44;89.30
49627;BME280;35527;54.616;39.786;2023-03-04T06:19:02;98103.97;;;2.38;88.94
49627;BME280;35527;54.616;39.786;2023-03-04T06:22:08;98099.19;;;2.54;88.37
49627;BME280;35527;54.616;39.786;2023-03-04T06:25:18;98066.66;;;2.34;87.65
49627;BME280;35527;54.616;39.786;2023-03-04T06:28:22;98091.88;;;2.68;87.19
49627;BME280;35527;54.616;39.786;2023-03-04T06:31:26;98093.03;;;2.83;86.51
49627;BME280;35527;54.616;39.786;2023-03-04T06:34:28;98089.22;;;2.94;85.12
49627;BME280;35527;54.616;39.786;2023-03-04T06:37:34;98089.88;;;3.23;83.88
49627;BME280;35527;54.616;39.786;2023-03-04T06:40:37;98081.13;;;3.52;81.40
49627;BME280;35527;54.616;39.786;2023-03-04T06:43:41;98061.28;;;3.79;79.24
49627;BME280;35527;54.616;39.786;2023-03-04T06:46:48;98064.50;;;4.46;75.84
49627;BME280;35527;54.616;39.786;2023-03-04T06:49:50;98070.09;;;5.14;72.79
49627;BME280;35527;54.616;39.786;2023-03-04T06:52:56;98084.22;;;5.23;69.34
49627;BME280;35527;54.616;39.786;2023-03-04T06:55:59;98087.19;;;4.76;68.80
49627;BME280;35527;54.616;39.786;2023-03-04T06:59:02;98084.88;;;4.69;70.00
49627;BME280;35527;54.616;39.786;2023-03-04T07:02:10;98076.47;;;5.05;69.66
49627;BME280;35527;54.616;39.786;2023-03-04T07:05:18;98062.81;;;5.24;68.64
49627;BME280;35527;54.616;39.786;2023-03-04T07:08:22;98064.13;;;5.69;67.25
49627;BME280;35527;54.616;39.786;2023-03-04T07:11:25;98066.59;;;6.59;64.82
49627;BME280;35527;54.616;39.786;2023-03-04T07:14:31;98068.72;;;6.50;61.84
49627;BME280;35527;54.616;39.786;2023-03-04T07:17:33;98065.81;;;5.70;61.73
49627;BME280;35527;54.616;39.786;2023-03-04T07:20:45;98066.91;;;4.90;64.16
49627;BME280;35527;54.616;39.786;2023-03-04T07:23:50;98069.69;;;4.65;66.25
49627;BME280;35527;54.616;39.786;2023-03-04T07:26:56;98070.03;;;4.37;67.47
49627;BME280;35527;54.616;39.786;2023-03-04T07:30:05;98050.50;;;3.93;69.39
49627;BME280;35527;54.616;39.786;2023-03-04T07:33:09;98063.03;;;3.99;70.55
49627;BME280;35527;54.616;39.786;2023-03-04T07:36:13;98061.75;;;3.89;71.57
49627;BME280;35527;54.616;39.786;2023-03-04T07:39:23;98057.22;;;3.96;71.77
49627;BME280;35527;54.616;39.786;2023-03-04T07:42:27;98059.75;;;3.75;72.86
49627;BME280;35527;54.616;39.786;2023-03-04T07:46:02;98050.28;;;3.77;73.88
49627;BME280;35527;54.616;39.786;2023-03-04T07:49:06;98052.38;;;3.68;74.74
49627;BME280;35527;54.616;39.786;2023-03-04T07:52:14;98057.09;;;3.99;75.64
49627;BME280;35527;54.616;39.786;2023-03-04T07:55:18;98054.22;;;4.06;74.38
49627;BME280;35527;54.616;39.786;2023-03-04T07:58:22;98048.59;;;3.98;74.22
49627;BME280;35527;54.616;39.786;2023-03-04T08:01:36;98040.44;;;3.89;75.06
49627;BME280;35527;54.616;39.786;2023-03-04T08:04:38;98053.97;;;3.70;75.37
49627;BME280;35527;54.616;39.786;2023-03-04T08:08:06;98052.81;;;3.35;76.70
49627;BME280;35527;54.616;39.786;2023-03-04T08:11:20;98027.03;;;3.39;77.24
49627;BME280;35527;54.616;39.786;2023-03-04T08:14:26;98045.94;;;3.57;78.11
49627;BME280;35527;54.616;39.786;2023-03-04T08:17:29;98039.84;;;3.39;78.08
49627;BME280;35527;54.616;39.786;2023-03-04T08:20:34;98047.56;;;3.60;78.24
49627;BME280;35527;54.616;39.786;2023-03-04T08:23:38;98048.25;;;3.86;78.00
49627;BME280;35527;54.616;39.786;2023-03-04T08:26:47;98039.13;;;4.21;76.31
49627;BME280;35527;54.616;39.786;2023-03-04T08:29:59;98046.91;;;4.78;74.49
49627;BME280;35527;54.616;39.786;2023-03-04T08:33:02;98037.03;;;4.89;71.90
49627;BME280;35527;54.616;39.786;2023-03-04T08:36:06;98011.25;;;4.73;70.53
49627;BME280;35527;54.616;39.786;2023-03-04T08:39:34;98031.69;;;4.74;69.43
49627;BME280;35527;54.616;39.786;2023-03-04T08:42:37;98020.25;;;4.63;69.45
49627;BME280;35527;54.616;39.786;2023-03-04T08:45:41;98024.94;;;4.53;69.67
49627;BME280;35527;54.616;39.786;2023-03-04T08:48:44;97988.28;;;4.12;70.07
49627;BME280;35527;54.616;39.786;2023-03-04T08:51:51;98032.78;;;4.69;69.82
49627;BME280;35527;54.616;39.786;2023-03-04T08:54:54;98024.03;;;4.54;69.88
49627;BME280;35527;54.616;39.786;2023-03-04T08:58:02;98031.16;;;4.47;69.82
49627;BME280;35527;54.616;39.786;2023-03-04T09:01:09;98009.25;;;4.21;70.70
49627;BME280;35527;54.616;39.786;2023-03-04T09:04:30;98003.72;;;4.10;71.51
49627;BME280;35527;54.616;39.786;2023-03-04T09:07:35;97991.13;;;3.85;72.35
49627;BME280;35527;54.616;39.786;2023-03-04T09:10:39;98009.88;;;4.06;73.12
49627;BME280;35527;54.616;39.786;2023-03-04T09:13:43;97984.28;;;3.86;73.81
49627;BME280;35527;54.616;39.786;2023-03-04T09:16:49;98002.66;;;4.16;73.45
49627;BME280;35527;54.616;39.786;2023-03-04T09:19:56;97963.88;;;3.84;72.06
49627;BME280;35527;54.616;39.786;2023-03-04T09:23:25;97974.50;;;3.95;72.81
49627;BME280;35527;54.616;39.786;2023-03-04T09:26:37;97973.78;;;4.51;72.17
49627;BME280;35527;54.616;39.786;2023-03-04T09:29:40;97959.72;;;4.79;70.90
49627;BME280;35527;54.616;39.786;2023-03-04T09:32:47;97975.66;;;5.41;68.41
49627;BME280;35527;54.616;39.786;2023-03-04T09:35:52;97968.03;;;5.92;66.16
49627;BME280;35527;54.616;39.786;2023-03-04T09:39:00;97942.06;;;6.15;63.93
49627;BME280;35527;54.616;39.786;2023-03-04T09:42:05;97962.50;;;6.34;62.05
49627;BME280;35527;54.616;39.786;2023-03-04T09:45:14;97941.34;;;6.29;59.10
49627;BME280;35527;54.616;39.786;2023-03-04T09:48:21;97962.78;;;6.45;57.47
49627;BME280;35527;54.616;39.786;2023-03-04T09:51:46;97956.72;;;6.46;56.47
49627;BME280;35527;54.616;39.786;2023-03-04T09:55:04;97963.47;;;5.98;57.25
49627;BME280;35527;54.616;39.786;2023-03-04T09:58:42;97948.88;;;5.47;58.46
49627;BME280;35527;54.616;39.786;2023-03-04T10:04:55;97949.66;;;5.12;61.26
49627;BME280;35527;54.616;39.786;2023-03-04T10:08:20;97930.84;;;5.12;62.02
49627;BME280;35527;54.616;39.786;2023-03-04T10:11:40;97933.75;;;4.87;62.76
49627;BME280;35527;54.616;39.786;2023-03-04T10:18:23;97912.59;;;4.64;64.18
49627;BME280;35527;54.616;39.786;2023-03-04T10:21:34;97913.47;;;4.63;64.66
49627;BME280;35527;54.616;39.786;2023-03-04T10:24:39;97908.16;;;4.30;65.42
49627;BME280;35527;54.616;39.786;2023-03-04T10:31:30;97893.91;;;4.99;64.49
49627;BME280;35527;54.616;39.786;2023-03-04T10:34:34;97905.16;;;5.83;61.66
49627;BME280;35527;54.616;39.786;2023-03-04T10:37:45;97895.63;;;6.51;59.17
49627;BME280;35527;54.616;39.786;2023-03-04T10:40:57;97873.06;;;6.41;58.36
49627;BME280;35527;54.616;39.786;2023-03-04T10:44:04;97877.59;;;6.04;58.23
49627;BME280;35527;54.616;39.786;2023-03-04T10:47:16;97881.56;;;5.59;59.39
49627;BME280;35527;54.616;39.786;2023-03-04T10:50:24;97873.72;;;5.45;60.43
49627;BME280;35527;54.616;39.786;2023-03-04T10:53:30;97851.16;;;5.51;61.22
49627;BME280;35527;54.616;39.786;2023-03-04T10:56:41;97801.38;;;5.20;59.45
49627;BME280;35527;54.616;39.786;2023-03-04T10:59:48;97847.28;;;4.90;60.48
49627;BME280;35527;54.616;39.786;2023-03-04T11:06:24;97834.81;;;5.19;62.07
49627;BME280;35527;54.616;39.786;2023-03-04T11:09:30;97847.91;;;5.48;59.98
49627;BME280;35527;54.616;39.786;2023-03-04T11:12:34;97835.25;;;5.78;59.38
49627;BME280;35527;54.616;39.786;2023-03-04T11:15:53;97836.22;;;5.93;58.03
49627;BME280;35527;54.616;39.786;2023-03-04T11:19:12;97826.81;;;5.76;58.16
49627;BME280;35527;54.616;39.786;2023-03-04T11:22:20;97823.00;;;5.67;57.88
49627;BME280;35527;54.616;39.786;2023-03-04T11:25:31;97839.97;;;5.70;57.79
49627;BME280;35527;54.616;39.786;2023-03-04T11:28:52;97827.44;;;5.46;58.15
49627;BME280;35527;54.616;39.786;2023-03-04T11:35:22;97825.81;;;5.10;58.23
49627;BME280;35527;54.616;39.786;2023-03-04T11:45:56;97807.56;;;5.16;56.80
49627;BME280;35527;54.616;39.786;2023-03-04T11:59:19;97783.75;;;4.97;57.44
49627;BME280;35527;54.616;39.786;2023-03-04T12:02:37;97786.22;;;4.64;58.05
49627;BME280;35527;54.616;39.786;2023-03-04T12:16:49;97787.81;;;4.11;59.86
49627;BME280;35527;54.616;39.786;2023-03-04T12:20:18;97778.81;;;4.02;59.77
49627;BME280;35527;54.616;39.786;2023-03-04T12:47:26;97759.88;;;3.09;69.42
49627;BME280;35527;54.616;39.786;2023-03-04T12:51:06;97750.25;;;2.95;73.63
49627;BME280;35527;54.616;39.786;2023-03-04T12:57:30;97743.16;;;3.02;77.68
49627;BME280;35527;54.616;39.786;2023-03-04T13:10:16;97722.91;;;2.56;86.51
49627;BME280;35527;54.616;39.786;2023-03-04T13:13:38;97707.53;;;2.58;87.77
49627;BME280;35527;54.616;39.786;2023-03-04T13:16:45;97702.84;;;2.47;89.21
49627;BME280;35527;54.616;39.786;2023-03-04T13:19:51;97700.16;;;2.30;91.68
49627;BME280;35527;54.616;39.786;2023-03-04T13:23:02;97708.94;;;2.43;93.80
49627;BME280;35527;54.616;39.786;2023-03-04T13:29:31;97673.84;;;2.28;95.14
49627;BME280;35527;54.616;39.786;2023-03-04T13:32:37;97678.28;;;2.44;95.85
49627;BME280;35527;54.616;39.786;2023-03-04T13:42:41;97650.75;;;2.51;98.27
49627;BME280;35527;54.616;39.786;2023-03-04T13:45:46;97636.88;;;2.38;99.17
49627;BME280;35527;54.616;39.786;2023-03-04T13:51:53;97650.72;;;2.53;98.67
49627;BME280;35527;54.616;39.786;2023-03-04T13:58:35;97643.63;;;2.39;100.00
49627;BME280;35527;54.616;39.786;2023-03-04T14:04:45;97625.59;;;1.79;100.00
49627;BME280;35527;54.616;39.786;2023-03-04T14:07:48;97615.38;;;1.57;100.00
49627;BME280;35527;54.616;39.786;2023-03-04T14:10:56;97617.72;;;2.06;100.00
49627;BME280;35527;54.616;39.786;2023-03-04T14:14:03;97603.88;;;1.91;100.00
49627;BME280;35527;54.616;39.786;2023-03-04T14:17:23;97599.94;;;1.62;100.00
49627;BME280;35527;54.616;39.786;2023-03-04T14:21:10;97597.94;;;1.90;100.00
49627;BME280;35527;54.616;39.786;2023-03-04T14:24:03;97576.59;;;1.93;100.00
49627;BME280;35527;54.616;39.786;2023-03-04T14:27:11;97544.28;;;1.29;100.00
49627;BME280;35527;54.616;39.786;2023-03-04T14:30:22;97597.25;;;1.43;100.00
49627;BME280;35527;54.616;39.786;2023-03-04T14:33:55;97579.56;;;1.60;100.00
49627;BME280;35527;54.616;39.786;2023-03-04T14:37:14;97548.16;;;1.60;100.00
49627;BME280;35527;54.616;39.786;2023-03-04T14:40:28;97535.97;;;1.46;100.00
49627;BME280;35527;54.616;39.786;2023-03-04T14:47:34;97567.03;;;1.55;100.00
49627;BME280;35527;54.616;39.786;2023-03-04T14:50:49;97532.47;;;1.48;100.00
49627;BME280;35527;54.616;39.786;2023-03-04T14:54:37;97520.31;;;1.55;100.00
49627;BME280;35527;54.616;39.786;2023-03-04T14:57:42;97541.16;;;1.65;100.00
49627;BME280;35527;54.616;39.786;2023-03-04T15:00:47;97541.00;;;1.69;100.00
49627;BME280;35527;54.616;39.786;2023-03-04T15:04:10;97536.97;;;1.64;100.00
49627;BME280;35527;54.616;39.786;2023-03-04T15:07:19;97525.72;;;1.47;100.00
49627;BME280;35527;54.616;39.786;2023-03-04T15:10:39;97533.50;;;1.44;100.00
49627;BME280;35527;54.616;39.786;2023-03-04T15:13:47;97534.31;;;1.45;100.00
49627;BME280;35527;54.616;39.786;2023-03-04T15:16:53;97533.06;;;1.55;100.00
49627;BME280;35527;54.616;39.786;2023-03-04T15:23:03;97519.88;;;1.66;100.00
49627;BME280;35527;54.616;39.786;2023-03-04T15:26:10;97484.50;;;1.58;100.00
49627;BME280;35527;54.616;39.786;2023-03-04T15:29:17;97499.31;;;1.70;100.00
49627;BME280;35527;54.616;39.786;2023-03-04T15:32:22;97488.19;;;1.51;100.00
49627;BME280;35527;54.616;39.786;2023-03-04T15:35:28;97494.75;;;1.56;100.00
49627;BME280;35527;54.616;39.786;2023-03-04T15:38:32;97501.34;;;1.62;100.00
49627;BME280;35527;54.616;39.786;2023-03-04T15:41:35;97501.06;;;1.68;100.00
49627;BME280;35527;54.616;39.786;2023-03-04T15:44:40;97478.66;;;1.76;100.00
49627;BME280;35527;54.616;39.786;2023-03-04T15:47:45;97469.28;;;1.77;100.00
49627;BME280;35527;54.616;39.786;2023-03-04T15:51:00;97475.47;;;1.92;100.00
49627;BME280;35527;54.616;39.786;2023-03-04T15:54:08;97474.06;;;2.05;100.00
49627;BME280;35527;54.616;39.786;2023-03-04T15:57:22;97455.19;;;1.89;100.00
49627;BME280;35527;54.616;39.786;2023-03-04T16:00:26;97469.50;;;2.12;100.00
49627;BME280;35527;54.616;39.786;2023-03-04T16:03:30;97457.94;;;1.84;100.00
49627;BME280;35527;54.616;39.786;2023-03-04T16:06:34;97460.97;;;2.13;100.00
49627;BME280;35527;54.616;39.786;2023-03-04T16:09:39;97463.69;;;2.29;100.00
49627;BME280;35527;54.616;39.786;2023-03-04T16:12:44;97444.94;;;2.30;100.00
49627;BME280;35527;54.616;39.786;2023-03-04T16:15:49;97448.31;;;2.30;100.00
49627;BME280;35527;54.616;39.786;2023-03-04T16:18:53;97452.25;;;2.56;100.00
49627;BME280;35527;54.616;39.786;2023-03-04T16:22:01;97440.06;;;2.44;100.00
49627;BME280;35527;54.616;39.786;2023-03-04T16:25:05;97418.66;;;2.28;100.00
49627;BME280;35527;54.616;39.786;2023-03-04T16:28:35;97436.25;;;2.34;100.00
49627;BME280;35527;54.616;39.786;2023-03-04T16:31:39;97436.19;;;2.35;100.00
49627;BME280;35527;54.616;39.786;2023-03-04T16:34:45;97418.09;;;2.40;100.00
49627;BME280;35527;54.616;39.786;2023-03-04T16:37:51;97427.72;;;2.35;100.00
49627;BME280;35527;54.616;39.786;2023-03-04T16:41:00;97403.34;;;2.28;100.00
49627;BME280;35527;54.616;39.786;2023-03-04T16:44:15;97402.06;;;2.17;100.00
49627;BME280;35527;54.616;39.786;2023-03-04T16:47:22;97409.72;;;2.17;100.00
49627;BME280;35527;54.616;39.786;2023-03-04T16:50:25;97405.06;;;2.27;100.00
49627;BME280;35527;54.616;39.786;2023-03-04T16:53:36;97403.53;;;2.42;100.00
49627;BME280;35527;54.616;39.786;2023-03-04T16:56:41;97381.66;;;2.17;100.00
49627;BME280;35527;54.616;39.786;2023-03-04T16:59:46;97371.75;;;2.11;100.00
49627;BME280;35527;54.616;39.786;2023-03-04T17:02:55;97383.19;;;2.21;100.00
49627;BME280;35527;54.616;39.786;2023-03-04T17:06:00;97361.41;;;1.95;100.00
49627;BME280;35527;54.616;39.786;2023-03-04T17:09:04;97389.22;;;2.20;100.00
49627;BME280;35527;54.616;39.786;2023-03-04T17:12:13;97339.41;;;1.93;100.00
49627;BME280;35527;54.616;39.786;2023-03-04T17:15:16;97341.28;;;1.69;100.00
49627;BME280;35527;54.616;39.786;2023-03-04T17:18:19;97377.13;;;1.86;100.00
49627;BME280;35527;54.616;39.786;2023-03-04T17:21:25;97348.69;;;1.75;100.00
49627;BME280;35527;54.616;39.786;2023-03-04T17:24:30;97347.59;;;1.80;100.00
49627;BME280;35527;54.616;39.786;2023-03-04T17:27:33;97352.13;;;1.74;100.00
49627;BME280;35527;54.616;39.786;2023-03-04T17:31:07;97331.16;;;1.67;100.00
49627;BME280;35527;54.616;39.786;2023-03-04T17:34:12;97354.75;;;1.72;100.00
49627;BME280;35527;54.616;39.786;2023-03-04T17:37:14;97348.38;;;1.62;100.00
49627;BME280;35527;54.616;39.786;2023-03-04T17:40:19;97356.34;;;1.54;100.00
49627;BME280;35527;54.616;39.786;2023-03-04T17:43:22;97334.31;;;1.53;100.00
49627;BME280;35527;54.616;39.786;2023-03-04T17:46:28;97334.53;;;1.68;100.00
49627;BME280;35527;54.616;39.786;2023-03-04T17:49:31;97315.28;;;1.42;100.00
49627;BME280;35527;54.616;39.786;2023-03-04T17:52:37;97307.00;;;1.37;99.11
49627;BME280;35527;54.616;39.786;2023-03-04T17:55:57;97341.41;;;1.66;98.59
49627;BME280;35527;54.616;39.786;2023-03-04T17:59:06;97311.22;;;1.56;98.27
49627;BME280;35527;54.616;39.786;2023-03-04T18:02:13;97341.63;;;1.61;98.03
49627;BME280;35527;54.616;39.786;2023-03-04T18:05:16;97345.84;;;1.62;97.89
49627;BME280;35527;54.616;39.786;2023-03-04T18:08:19;97337.69;;;1.54;98.16
49627;BME280;35527;54.616;39.786;2023-03-04T18:11:26;97297.13;;;1.49;98.52
49627;BME280;35527;54.616;39.786;2023-03-04T18:14:29;97324.44;;;1.46;100.00
49627;BME280;35527;54.616;39.786;2023-03-04T18:17:57;97328.38;;;1.53;100.00
49627;BME280;35527;54.616;39.786;2023-03-04T18:21:00;97307.75;;;1.39;100.00
49627;BME280;35527;54.616;39.786;2023-03-04T18:24:07;97324.38;;;1.47;100.00
49627;BME280;35527;54.616;39.786;2023-03-04T18:27:12;97290.38;;;1.28;100.00